sensor_id;sensor_type;location;lat;lon;timestamp;temperature;humidity
25214;DHT22;13160;51.834;4.706;2023-03-05T00:01:39;5.70;99.90
25214;DHT22;13160;51.834;4.706;2023-03-05T00:04:12;5.70;99.90
25214;DHT22;13160;51.834;4.706;2023-03-05T00:06:41;5.70;99.90
25214;DHT22;13160;51.834;4.706;2023-03-05T00:09:11;5.60;99.90
25214;DHT22;13160;51.834;4.706;2023-03-05T00:11:40;5.60;99.90
25214;DHT22;13160;51.834;4.706;2023-03-05T00:14:09;5.60;99.90
25214;DHT22;13160;51.834;4.706;2023-03-05T00:16:39;5.60;99.90
25214;DHT22;13160;51.834;4.706;2023-03-05T00:19:07;5.60;99.90
25214;DHT22;13160;51.834;4.706;2023-03-05T00:21:38;5.60;99.90
25214;DHT22;13160;51.834;4.706;2023-03-05T00:24:12;5.50;99.90
25214;DHT22;13160;51.834;4.706;2023-03-05T00:26:41;5.50;99.90
25214;DHT22;13160;51.834;4.706;2023-03-05T00:29:13;5.40;99.90
25214;DHT22;13160;51.834;4.706;2023-03-05T00:31:44;5.40;99.90
25214;DHT22;13160;51.834;4.706;2023-03-05T00:34:15;5.30;99.90
25214;DHT22;13160;51.834;4.706;2023-03-05T00:36:47;5.30;99.90
25214;DHT22;13160;51.834;4.706;2023-03-05T00:39:18;5.20;99.90
25214;DHT22;13160;51.834;4.706;2023-03-05T00:41:47;5.20;99.90
25214;DHT22;13160;51.834;4.706;2023-03-05T00:44:16;5.10;99.90
25214;DHT22;13160;51.834;4.706;2023-03-05T00:46:44;5.10;99.90
25214;DHT22;13160;51.834;4.706;2023-03-05T00:49:13;5.00;99.90
25214;DHT22;13160;51.834;4.706;2023-03-05T00:51:43;5.00;99.90
25214;DHT22;13160;51.834;4.706;2023-03-05T00:54:11;5.00;99.90
25214;DHT22;13160;51.834;4.706;2023-03-05T00:56:41;4.90;99.90
25214;DHT22;13160;51.834;4.706;2023-03-05T00:59:10;4.90;99.90
25214;DHT22;13160;51.834;4.706;2023-03-05T01:01:39;4.80;99.90
25214;DHT22;13160;51.834;4.706;2023-03-05T01:04:08;4.80;99.90
25214;DHT22;13160;51.834;4.706;2023-03-05T01:06:36;4.70;99.90
25214;DHT22;13160;51.834;4.706;2023-03-05T01:09:08;4.70;99.90
25214;DHT22;13160;51.834;4.706;2023-03-05T01:11:36;4.70;99.90
25214;DHT22;13160;51.834;4.706;2023-03-05T01:14:06;4.70;99.90
25214;DHT22;13160;51.834;4.706;2023-03-05T01:16:34;4.60;99.90
25214;DHT22;13160;51.834;4.706;2023-03-05T01:19:06;4.60;99.90
25214;DHT22;13160;51.834;4.706;2023-03-05T01:21:34;4.60;99.90
25214;DHT22;13160;51.834;4.706;2023-03-05T01:24:06;4.60;99.90
25214;DHT22;13160;51.834;4.706;2023-03-05T01:26:36;4.60;99.90
25214;DHT22;13160;51.834;4.706;2023-03-05T01:29:06;4.60;99.90
25214;DHT22;13160;51.834;4.706;2023-03-05T01:31:34;4.60;99.90
25214;DHT22;13160;51.834;4.706;2023-03-05T01:34:02;4.60;99.90
25214;DHT22;13160;51.834;4.706;2023-03-05T01:36:31;4.70;99.90
25214;DHT22;13160;51.834;4.706;2023-03-05T01:38:59;4.70;99.90
25214;DHT22;13160;51.834;4.706;2023-03-05T01:41:28;4.70;99.90
25214;DHT22;13160;51.834;4.706;2023-03-05T01:43:56;4.70;99.90
25214;DHT22;13160;51.834;4.706;2023-03-05T01:46:33;4.70;99.90
25214;DHT22;13160;51.834;4.706;2023-03-05T01:49:13;4.70;99.90
25214;DHT22;13160;51.834;4.706;2023-03-05T01:51:51;4.80;99.90
25214;DHT22;13160;51.834;4.706;2023-03-05T01:54:27;4.80;99.90
25214;DHT22;13160;51.834;4.706;2023-03-05T01:56:59;4.80;99.90
25214;DHT22;13160;51.834;4.706;2023-03-05T01:59:32;4.80;99.90
25214;DHT22;13160;51.834;4.706;2023-03-05T02:02:05;4.80;99.90
25214;DHT22;13160;51.834;4.706;2023-03-05T02:04:38;4.90;99.90
25214;DHT22;13160;51.834;4.706;2023-03-05T02:07:11;4.90;99.90
25214;DHT22;13160;51.834;4.706;2023-03-05T02:09:40;4.90;99.90
25214;DHT22;13160;51.834;4.706;2023-03-05T02:12:09;4.90;99.90
25214;DHT22;13160;51.834;4.706;2023-03-05T02:14:39;4.90;99.90
25214;DHT22;13160;51.834;4.706;2023-03-05T02:17:11;4.90;99.90
25214;DHT22;13160;51.834;4.706;2023-03-05T02:19:47;5.00;99.90
25214;DHT22;13160;51.834;4.706;2023-03-05T02:22:21;5.00;99.90
25214;DHT22;13160;51.834;4.706;2023-03-05T02:24:50;5.00;99.90
25214;DHT22;13160;51.834;4.706;2023-03-05T02:27:23;5.00;99.90
25214;DHT22;13160;51.834;4.706;2023-03-05T02:30:01;5.00;99.90
25214;DHT22;13160;51.834;4.706;2023-03-05T02:32:31;5.00;99.90
25214;DHT22;13160;51.834;4.706;2023-03-05T02:34:59;5.10;99.90
25214;DHT22;13160;51.834;4.706;2023-03-05T02:37:29;5.10;99.90
25214;DHT22;13160;51.834;4.706;2023-03-05T02:39:57;5.10;99.90
25214;DHT22;13160;51.834;4.706;2023-03-05T02:42:25;5.10;99.90
25214;DHT22;13160;51.834;4.706;2023-03-05T02:44:54;5.10;99.90
25214;DHT22;13160;51.834;4.706;2023-03-05T02:47:22;5.10;99.90
25214;DHT22;13160;51.834;4.706;2023-03-05T02:49:51;5.10;99.90
25214;DHT22;13160;51.834;4.706;2023-03-05T02:52:21;5.10;99.90
25214;DHT22;13160;51.834;4.706;2023-03-05T02:54:51;5.10;99.90
25214;DHT22;13160;51.834;4.706;2023-03-05T02:57:20;5.10;99.90
25214;DHT22;13160;51.834;4.706;2023-03-05T02:59:48;5.10;99.90
25214;DHT22;13160;51.834;4.706;2023-03-05T03:02:16;5.10;99.90
25214;DHT22;13160;51.834;4.706;2023-03-05T03:04:45;5.10;99.90
25214;DHT22;13160;51.834;4.706;2023-03-05T03:07:13;5.00;99.90
25214;DHT22;13160;51.834;4.706;2023-03-05T03:09:43;5.00;99.90
25214;DHT22;13160;51.834;4.706;2023-03-05T03:12:13;5.00;99.90
25214;DHT22;13160;51.834;4.706;2023-03-05T03:14:42;4.90;99.90
25214;DHT22;13160;51.834;4.706;2023-03-05T03:17:12;4.90;99.90
25214;DHT22;13160;51.834;4.706;2023-03-05T03:19:43;4.90;99.90
25214;DHT22;13160;51.834;4.706;2023-03-05T03:22:14;4.90;99.90
25214;DHT22;13160;51.834;4.706;2023-03-05T03:24:43;4.80;99.90
25214;DHT22;13160;51.834;4.706;2023-03-05T03:27:13;4.80;99.90
25214;DHT22;13160;51.834;4.706;2023-03-05T03:29:44;4.80;99.90
25214;DHT22;13160;51.834;4.706;2023-03-05T03:32:12;4.80;99.90
25214;DHT22;13160;51.834;4.706;2023-03-05T03:34:43;4.80;99.90
25214;DHT22;13160;51.834;4.706;2023-03-05T03:37:13;4.90;99.90
25214;DHT22;13160;51.834;4.706;2023-03-05T03:39:43;4.90;99.90
25214;DHT22;13160;51.834;4.706;2023-03-05T03:42:15;4.90;99.90
25214;DHT22;13160;51.834;4.706;2023-03-05T03:44:44;4.90;99.90
25214;DHT22;13160;51.834;4.706;2023-03-05T03:47:13;4.90;99.90
25214;DHT22;13160;51.834;4.706;2023-03-05T03:49:41;4.90;99.90
25214;DHT22;13160;51.834;4.706;2023-03-05T03:52:10;5.00;99.90
25214;DHT22;13160;51.834;4.706;2023-03-05T03:54:38;5.00;99.90
25214;DHT22;13160;51.834;4.706;2023-03-05T03:57:06;5.00;99.90
25214;DHT22;13160;51.834;4.706;2023-03-05T03:59:36;5.00;99.90
25214;DHT22;13160;51.834;4.706;2023-03-05T04:02:05;5.00;99.90
25214;DHT22;13160;51.834;4.706;2023-03-05T04:04:33;5.10;99.90
25214;DHT22;13160;51.834;4.706;2023-03-05T04:07:02;5.10;99.90
25214;DHT22;13160;51.834;4.706;2023-03-05T04:09:30;5.00;99.90
25214;DHT22;13160;51.834;4.706;2023-03-05T04:11:59;5.10;99.90
25214;DHT22;13160;51.834;4.706;2023-03-05T04:14:27;5.00;99.90
25214;DHT22;13160;51.834;4.706;2023-03-05T04:16:57;5.10;99.90
25214;DHT22;13160;51.834;4.706;2023-03-05T04:19:25;5.00;99.90
25214;DHT22;13160;51.834;4.706;2023-03-05T04:22:00;5.10;99.90
25214;DHT22;13160;51.834;4.706;2023-03-05T04:24:31;5.10;99.90
25214;DHT22;13160;51.834;4.706;2023-03-05T04:27:00;5.00;99.90
25214;DHT22;13160;51.834;4.706;2023-03-05T04:29:28;5.10;99.90
25214;DHT22;13160;51.834;4.706;2023-03-05T04:31:58;5.10;99.90
25214;DHT22;13160;51.834;4.706;2023-03-05T04:34:26;5.10;99.90
25214;DHT22;13160;51.834;4.706;2023-03-05T04:36:54;5.10;99.90
25214;DHT22;13160;51.834;4.706;2023-03-05T04:39:23;5.10;99.90
25214;DHT22;13160;51.834;4.706;2023-03-05T04:41:51;5.10;99.90
25214;DHT22;13160;51.834;4.706;2023-03-05T04:44:20;5.10;99.90
25214;DHT22;13160;51.834;4.706;2023-03-05T04:46:49;5.10;99.90
25214;DHT22;13160;51.834;4.706;2023-03-05T04:49:19;5.10;99.90
25214;DHT22;13160;51.834;4.706;2023-03-05T04:51:47;5.10;99.90
25214;DHT22;13160;51.834;4.706;2023-03-05T04:54:16;5.20;99.90
25214;DHT22;13160;51.834;4.706;2023-03-05T04:56:44;5.10;99.90
25214;DHT22;13160;51.834;4.706;2023-03-05T04:59:12;5.20;99.90
25214;DHT22;13160;51.834;4.706;2023-03-05T05:01:43;5.20;99.90
25214;DHT22;13160;51.834;4.706;2023-03-05T05:04:11;5.20;99.90
25214;DHT22;13160;51.834;4.706;2023-03-05T05:06:46;5.20;99.90
25214;DHT22;13160;51.834;4.706;2023-03-05T05:09:14;5.10;99.90
25214;DHT22;13160;51.834;4.706;2023-03-05T05:11:43;5.20;99.90
25214;DHT22;13160;51.834;4.706;2023-03-05T05:14:11;5.20;99.90
25214;DHT22;13160;51.834;4.706;2023-03-05T05:16:40;5.10;99.90
25214;DHT22;13160;51.834;4.706;2023-03-05T05:19:09;5.10;99.90
25214;DHT22;13160;51.834;4.706;2023-03-05T05:21:37;5.10;99.90
25214;DHT22;13160;51.834;4.706;2023-03-05T05:24:08;5.00;99.90
25214;DHT22;13160;51.834;4.706;2023-03-05T05:26:36;5.00;99.90
25214;DHT22;13160;51.834;4.706;2023-03-05T05:29:04;5.00;99.90
25214;DHT22;13160;51.834;4.706;2023-03-05T05:31:33;5.00;99.90
25214;DHT22;13160;51.834;4.706;2023-03-05T05:34:01;4.90;99.90
25214;DHT22;13160;51.834;4.706;2023-03-05T05:36:29;4.90;99.90
25214;DHT22;13160;51.834;4.706;2023-03-05T05:38:58;4.80;99.90
25214;DHT22;13160;51.834;4.706;2023-03-05T05:41:27;4.80;99.90
25214;DHT22;13160;51.834;4.706;2023-03-05T05:43:56;4.80;99.90
25214;DHT22;13160;51.834;4.706;2023-03-05T05:46:24;4.80;99.90
25214;DHT22;13160;51.834;4.706;2023-03-05T05:48:53;4.70;99.90
25214;DHT22;13160;51.834;4.706;2023-03-05T05:51:22;4.70;99.90
25214;DHT22;13160;51.834;4.706;2023-03-05T05:53:51;4.70;99.90
25214;DHT22;13160;51.834;4.706;2023-03-05T05:56:20;4.70;99.90
25214;DHT22;13160;51.834;4.706;2023-03-05T05:58:50;4.60;99.90
25214;DHT22;13160;51.834;4.706;2023-03-05T06:01:20;4.60;99.90
25214;DHT22;13160;51.834;4.706;2023-03-05T06:03:50;4.60;99.90
25214;DHT22;13160;51.834;4.706;2023-03-05T06:06:20;4.60;99.90
25214;DHT22;13160;51.834;4.706;2023-03-05T06:08:49;4.60;99.90
25214;DHT22;13160;51.834;4.706;2023-03-05T06:11:19;4.50;99.90
25214;DHT22;13160;51.834;4.706;2023-03-05T06:13:49;4.50;99.90
25214;DHT22;13160;51.834;4.706;2023-03-05T06:16:20;4.50;99.90
25214;DHT22;13160;51.834;4.706;2023-03-05T06:18:50;4.50;99.90
25214;DHT22;13160;51.834;4.706;2023-03-05T06:21:20;4.50;99.90
25214;DHT22;13160;51.834;4.706;2023-03-05T06:23:49;4.50;99.90
25214;DHT22;13160;51.834;4.706;2023-03-05T06:26:19;4.50;99.90
25214;DHT22;13160;51.834;4.706;2023-03-05T06:28:50;4.50;99.90
25214;DHT22;13160;51.834;4.706;2023-03-05T06:31:21;4.50;99.90
25214;DHT22;13160;51.834;4.706;2023-03-05T06:33:52;4.50;99.90
25214;DHT22;13160;51.834;4.706;2023-03-05T06:36:23;4.50;99.90
25214;DHT22;13160;51.834;4.706;2023-03-05T06:38:52;4.50;99.90
25214;DHT22;13160;51.834;4.706;2023-03-05T06:41:23;4.50;99.90
25214;DHT22;13160;51.834;4.706;2023-03-05T06:43:54;4.50;99.90
25214;DHT22;13160;51.834;4.706;2023-03-05T06:46:26;4.50;99.90
25214;DHT22;13160;51.834;4.706;2023-03-05T06:48:56;4.50;99.90
25214;DHT22;13160;51.834;4.706;2023-03-05T06:51:27;4.50;99.90
25214;DHT22;13160;51.834;4.706;2023-03-05T06:53:59;4.60;99.90
25214;DHT22;13160;51.834;4.706;2023-03-05T06:56:29;4.60;99.90
25214;DHT22;13160;51.834;4.706;2023-03-05T06:59:02;4.60;99.90
25214;DHT22;13160;51.834;4.706;2023-03-05T07:01:33;4.70;99.90
25214;DHT22;13160;51.834;4.706;2023-03-05T07:04:04;4.70;99.90
25214;DHT22;13160;51.834;4.706;2023-03-05T07:06:34;4.70;99.90
25214;DHT22;13160;51.834;4.706;2023-03-05T07:09:05;4.80;99.90
25214;DHT22;13160;51.834;4.706;2023-03-05T07:11:35;4.80;99.90
25214;DHT22;13160;51.834;4.706;2023-03-05T07:14:05;4.80;99.90
25214;DHT22;13160;51.834;4.706;2023-03-05T07:16:33;4.80;99.90
25214;DHT22;13160;51.834;4.706;2023-03-05T07:19:03;4.80;99.90
25214;DHT22;13160;51.834;4.706;2023-03-05T07:21:34;4.80;99.90
25214;DHT22;13160;51.834;4.706;2023-03-05T07:24:06;4.80;99.90
25214;DHT22;13160;51.834;4.706;2023-03-05T07:26:35;4.80;99.90
25214;DHT22;13160;51.834;4.706;2023-03-05T07:29:05;4.90;99.90
25214;DHT22;13160;51.834;4.706;2023-03-05T07:31:33;4.90;99.90
25214;DHT22;13160;51.834;4.706;2023-03-05T07:34:02;4.90;99.90
25214;DHT22;13160;51.834;4.706;2023-03-05T07:36:32;5.00;99.90
25214;DHT22;13160;51.834;4.706;2023-03-05T07:39:01;5.00;99.90
25214;DHT22;13160;51.834;4.706;2023-03-05T07:41:30;5.10;99.90
25214;DHT22;13160;51.834;4.706;2023-03-05T07:43:59;5.10;99.90
25214;DHT22;13160;51.834;4.706;2023-03-05T07:46:31;5.20;99.90
25214;DHT22;13160;51.834;4.706;2023-03-05T07:49:00;5.20;99.90
25214;DHT22;13160;51.834;4.706;2023-03-05T07:51:28;5.20;99.90
25214;DHT22;13160;51.834;4.706;2023-03-05T07:53:58;5.20;99.90
25214;DHT22;13160;51.834;4.706;2023-03-05T07:56:28;5.30;99.90
25214;DHT22;13160;51.834;4.706;2023-03-05T07:58:59;5.30;99.90
25214;DHT22;13160;51.834;4.706;2023-03-05T08:01:30;5.40;99.90
25214;DHT22;13160;51.834;4.706;2023-03-05T08:03:59;5.50;99.90
25214;DHT22;13160;51.834;4.706;2023-03-05T08:06:27;5.50;99.90
25214;DHT22;13160;51.834;4.706;2023-03-05T08:08:56;5.60;99.90
25214;DHT22;13160;51.834;4.706;2023-03-05T08:11:27;5.70;99.90
25214;DHT22;13160;51.834;4.706;2023-03-05T08:13:57;5.70;99.90
25214;DHT22;13160;51.834;4.706;2023-03-05T08:16:35;5.70;99.90
25214;DHT22;13160;51.834;4.706;2023-03-05T08:19:12;5.80;99.90
25214;DHT22;13160;51.834;4.706;2023-03-05T08:21:41;5.80;99.90
25214;DHT22;13160;51.834;4.706;2023-03-05T08:24:17;5.80;99.90
25214;DHT22;13160;51.834;4.706;2023-03-05T08:26:47;5.90;99.90
25214;DHT22;13160;51.834;4.706;2023-03-05T08:29:18;5.90;99.90
25214;DHT22;13160;51.834;4.706;2023-03-05T08:31:48;5.90;99.90
25214;DHT22;13160;51.834;4.706;2023-03-05T08:34:19;5.90;99.90
25214;DHT22;13160;51.834;4.706;2023-03-05T08:36:48;6.00;99.90
25214;DHT22;13160;51.834;4.706;2023-03-05T08:39:17;6.00;99.90
25214;DHT22;13160;51.834;4.706;2023-03-05T08:41:45;6.00;99.90
25214;DHT22;13160;51.834;4.706;2023-03-05T08:44:14;6.10;99.90
25214;DHT22;13160;51.834;4.706;2023-03-05T08:46:44;6.10;99.90
25214;DHT22;13160;51.834;4.706;2023-03-05T08:49:18;6.20;99.90
25214;DHT22;13160;51.834;4.706;2023-03-05T08:51:46;6.20;99.90
25214;DHT22;13160;51.834;4.706;2023-03-05T08:54:14;6.30;99.90
25214;DHT22;13160;51.834;4.706;2023-03-05T08:56:46;6.30;99.90
25214;DHT22;13160;51.834;4.706;2023-03-05T08:59:16;6.40;99.90
25214;DHT22;13160;51.834;4.706;2023-03-05T09:01:44;6.40;99.90
25214;DHT22;13160;51.834;4.706;2023-03-05T09:04:14;6.40;99.90
25214;DHT22;13160;51.834;4.706;2023-03-05T09:06:42;6.50;99.90
25214;DHT22;13160;51.834;4.706;2023-03-05T09:09:11;6.50;99.90
25214;DHT22;13160;51.834;4.706;2023-03-05T09:11:39;6.60;99.90
25214;DHT22;13160;51.834;4.706;2023-03-05T09:14:09;6.60;99.90
25214;DHT22;13160;51.834;4.706;2023-03-05T09:16:37;6.70;99.90
25214;DHT22;13160;51.834;4.706;2023-03-05T09:19:07;6.70;99.90
25214;DHT22;13160;51.834;4.706;2023-03-05T09:21:37;6.80;99.90
25214;DHT22;13160;51.834;4.706;2023-03-05T09:24:06;6.80;99.90
25214;DHT22;13160;51.834;4.706;2023-03-05T09:26:35;6.90;99.90
25214;DHT22;13160;51.834;4.706;2023-03-05T09:29:06;7.00;99.90
25214;DHT22;13160;51.834;4.706;2023-03-05T09:31:34;7.10;99.90
25214;DHT22;13160;51.834;4.706;2023-03-05T09:34:03;7.20;99.90
25214;DHT22;13160;51.834;4.706;2023-03-05T09:36:32;7.20;99.90
25214;DHT22;13160;51.834;4.706;2023-03-05T09:39:04;7.30;99.90
25214;DHT22;13160;51.834;4.706;2023-03-05T09:41:39;7.30;99.90
25214;DHT22;13160;51.834;4.706;2023-03-05T09:44:26;7.30;99.90
25214;DHT22;13160;51.834;4.706;2023-03-05T09:47:12;7.40;99.90
25214;DHT22;13160;51.834;4.706;2023-03-05T09:49:54;7.40;99.90
25214;DHT22;13160;51.834;4.706;2023-03-05T09:52:33;7.50;99.90
25214;DHT22;13160;51.834;4.706;2023-03-05T09:55:13;7.50;99.90
25214;DHT22;13160;51.834;4.706;2023-03-05T09:57:48;7.60;99.90
25214;DHT22;13160;51.834;4.706;2023-03-05T10:00:29;7.60;99.90
25214;DHT22;13160;51.834;4.706;2023-03-05T10:03:04;7.70;99.90
25214;DHT22;13160;51.834;4.706;2023-03-05T10:05:48;7.70;99.90
25214;DHT22;13160;51.834;4.706;2023-03-05T10:08:24;7.80;99.90
25214;DHT22;13160;51.834;4.706;2023-03-05T10:11:01;7.80;99.90
25214;DHT22;13160;51.834;4.706;2023-03-05T10:13:36;7.80;99.90
25214;DHT22;13160;51.834;4.706;2023-03-05T10:16:32;7.80;99.90
25214;DHT22;13160;51.834;4.706;2023-03-05T10:19:14;7.70;99.90
25214;DHT22;13160;51.834;4.706;2023-03-05T10:21:48;7.50;99.90
25214;DHT22;13160;51.834;4.706;2023-03-05T10:24:27;7.40;99.90
25214;DHT22;13160;51.834;4.706;2023-03-05T10:27:07;7.30;99.90
25214;DHT22;13160;51.834;4.706;2023-03-05T10:29:54;7.20;99.90
25214;DHT22;13160;51.834;4.706;2023-03-05T10:32:36;7.20;99.90
25214;DHT22;13160;51.834;4.706;2023-03-05T10:38:20;7.20;99.90
25214;DHT22;13160;51.834;4.706;2023-03-05T10:41:14;7.20;99.90
25214;DHT22;13160;51.834;4.706;2023-03-05T10:43:51;7.30;99.90
25214;DHT22;13160;51.834;4.706;2023-03-05T10:46:30;7.40;99.90
25214;DHT22;13160;51.834;4.706;2023-03-05T10:49:04;7.40;99.90
25214;DHT22;13160;51.834;4.706;2023-03-05T10:51:38;7.50;99.90
25214;DHT22;13160;51.834;4.706;2023-03-05T10:54:15;7.50;99.90
25214;DHT22;13160;51.834;4.706;2023-03-05T10:56:46;7.60;99.90
25214;DHT22;13160;51.834;4.706;2023-03-05T10:59:16;7.60;99.90
25214;DHT22;13160;51.834;4.706;2023-03-05T11:02:01;7.70;99.90
25214;DHT22;13160;51.834;4.706;2023-03-05T11:04:36;7.80;99.90
25214;DHT22;13160;51.834;4.706;2023-03-05T11:07:10;7.80;99.90
25214;DHT22;13160;51.834;4.706;2023-03-05T11:10:14;7.80;99.90
25214;DHT22;13160;51.834;4.706;2023-03-05T11:12:45;7.80;99.90
25214;DHT22;13160;51.834;4.706;2023-03-05T11:15:28;7.90;99.90
25214;DHT22;13160;51.834;4.706;2023-03-05T11:18:19;7.90;99.90
25214;DHT22;13160;51.834;4.706;2023-03-05T11:20:50;7.80;99.90
25214;DHT22;13160;51.834;4.706;2023-03-05T11:23:22;7.80;99.90
25214;DHT22;13160;51.834;4.706;2023-03-05T11:25:59;7.70;99.90
25214;DHT22;13160;51.834;4.706;2023-03-05T11:28:31;7.70;99.90
25214;DHT22;13160;51.834;4.706;2023-03-05T11:31:11;7.70;99.90
25214;DHT22;13160;51.834;4.706;2023-03-05T11:34:00;7.70;99.90
25214;DHT22;13160;51.834;4.706;2023-03-05T11:36:32;7.70;99.90
25214;DHT22;13160;51.834;4.706;2023-03-05T11:39:13;7.80;99.90
25214;DHT22;13160;51.834;4.706;2023-03-05T11:41:47;7.90;99.90
25214;DHT22;13160;51.834;4.706;2023-03-05T11:44:21;8.00;99.90
25214;DHT22;13160;51.834;4.706;2023-03-05T11:46:54;8.10;99.90
25214;DHT22;13160;51.834;4.706;2023-03-05T11:49:26;8.20;99.90
25214;DHT22;13160;51.834;4.706;2023-03-05T11:52:03;8.30;99.90
25214;DHT22;13160;51.834;4.706;2023-03-05T11:54:40;8.30;99.90
25214;DHT22;13160;51.834;4.706;2023-03-05T11:57:11;8.30;99.90
25214;DHT22;13160;51.834;4.706;2023-03-05T11:59:42;8.30;99.90
25214;DHT22;13160;51.834;4.706;2023-03-05T12:02:18;8.30;99.90
25214;DHT22;13160;51.834;4.706;2023-03-05T12:04:48;8.30;99.90
25214;DHT22;13160;51.834;4.706;2023-03-05T12:07:21;8.40;99.90
25214;DHT22;13160;51.834;4.706;2023-03-05T12:09:59;8.40;99.90
25214;DHT22;13160;51.834;4.706;2023-03-05T12:12:34;8.50;99.90
25214;DHT22;13160;51.834;4.706;2023-03-05T12:15:31;8.50;99.90
25214;DHT22;13160;51.834;4.706;2023-03-05T12:18:14;8.50;99.90
25214;DHT22;13160;51.834;4.706;2023-03-05T12:20:48;8.50;99.90
25214;DHT22;13160;51.834;4.706;2023-03-05T12:23:22;8.60;99.90
25214;DHT22;13160;51.834;4.706;2023-03-05T12:25:55;8.60;99.90
25214;DHT22;13160;51.834;4.706;2023-03-05T12:28:54;8.60;99.90
25214;DHT22;13160;51.834;4.706;2023-03-05T12:31:34;8.60;99.90
25214;DHT22;13160;51.834;4.706;2023-03-05T12:34:35;8.60;99.90
25214;DHT22;13160;51.834;4.706;2023-03-05T12:44:21;8.50;99.90
25214;DHT22;13160;51.834;4.706;2023-03-05T12:47:15;8.50;99.90
25214;DHT22;13160;51.834;4.706;2023-03-05T12:49:46;8.50;99.90
25214;DHT22;13160;51.834;4.706;2023-03-05T12:52:26;8.50;99.90
25214;DHT22;13160;51.834;4.706;2023-03-05T12:55:02;8.50;99.90
25214;DHT22;13160;51.834;4.706;2023-03-05T12:57:44;8.50;99.90
25214;DHT22;13160;51.834;4.706;2023-03-05T13:00:17;8.50;99.90
25214;DHT22;13160;51.834;4.706;2023-03-05T13:02:53;8.50;99.90
25214;DHT22;13160;51.834;4.706;2023-03-05T13:05:26;8.50;99.90
25214;DHT22;13160;51.834;4.706;2023-03-05T13:08:19;8.50;99.90
25214;DHT22;13160;51.834;4.706;2023-03-05T13:10:52;8.50;99.90
25214;DHT22;13160;51.834;4.706;2023-03-05T13:13:27;8.50;99.90
25214;DHT22;13160;51.834;4.706;2023-03-05T13:16:01;8.50;99.90
25214;DHT22;13160;51.834;4.706;2023-03-05T13:18:32;8.60;99.90
25214;DHT22;13160;51.834;4.706;2023-03-05T13:21:12;8.50;99.90
25214;DHT22;13160;51.834;4.706;2023-03-05T13:23:46;8.60;99.90
25214;DHT22;13160;51.834;4.706;2023-03-05T13:26:24;8.60;99.90
25214;DHT22;13160;51.834;4.706;2023-03-05T13:29:09;8.70;99.90
25214;DHT22;13160;51.834;4.706;2023-03-05T13:31:42;8.70;99.90
25214;DHT22;13160;51.834;4.706;2023-03-05T13:34:19;8.80;99.90
25214;DHT22;13160;51.834;4.706;2023-03-05T13:36:55;8.90;99.90
25214;DHT22;13160;51.834;4.706;2023-03-05T13:39:26;9.00;99.90
25214;DHT22;13160;51.834;4.706;2023-03-05T13:42:02;9.00;99.90
25214;DHT22;13160;51.834;4.706;2023-03-05T13:44:34;9.00;99.90
25214;DHT22;13160;51.834;4.706;2023-03-05T13:47:14;9.00;99.90
25214;DHT22;13160;51.834;4.706;2023-03-05T13:49:45;9.00;99.90
25214;DHT22;13160;51.834;4.706;2023-03-05T13:52:22;9.00;99.90
25214;DHT22;13160;51.834;4.706;2023-03-05T13:54:51;9.00;99.90
25214;DHT22;13160;51.834;4.706;2023-03-05T13:57:35;9.00;99.90
25214;DHT22;13160;51.834;4.706;2023-03-05T14:02:53;9.00;99.90
25214;DHT22;13160;51.834;4.706;2023-03-05T14:05:25;9.00;99.90
25214;DHT22;13160;51.834;4.706;2023-03-05T14:07:55;9.00;99.90
25214;DHT22;13160;51.834;4.706;2023-03-05T14:10:30;9.00;99.90
25214;DHT22;13160;51.834;4.706;2023-03-05T14:13:03;8.90;99.90
25214;DHT22;13160;51.834;4.706;2023-03-05T14:15:35;8.90;99.90
25214;DHT22;13160;51.834;4.706;2023-03-05T14:18:17;8.90;99.90
25214;DHT22;13160;51.834;4.706;2023-03-05T14:21:03;8.90;99.90
25214;DHT22;13160;51.834;4.706;2023-03-05T14:23:39;8.90;99.90
25214;DHT22;13160;51.834;4.706;2023-03-05T14:26:27;8.90;99.90
25214;DHT22;13160;51.834;4.706;2023-03-05T14:29:01;8.90;99.90
25214;DHT22;13160;51.834;4.706;2023-03-05T14:31:35;8.90;99.90
25214;DHT22;13160;51.834;4.706;2023-03-05T14:34:24;8.90;99.90
25214;DHT22;13160;51.834;4.706;2023-03-05T14:36:56;8.90;99.90
25214;DHT22;13160;51.834;4.706;2023-03-05T14:39:33;8.90;99.90
25214;DHT22;13160;51.834;4.706;2023-03-05T14:42:27;8.90;99.90
25214;DHT22;13160;51.834;4.706;2023-03-05T14:44:59;8.90;99.90
25214;DHT22;13160;51.834;4.706;2023-03-05T14:47:30;8.90;99.90
25214;DHT22;13160;51.834;4.706;2023-03-05T14:49:58;8.90;99.90
25214;DHT22;13160;51.834;4.706;2023-03-05T14:52:27;8.80;99.90
25214;DHT22;13160;51.834;4.706;2023-03-05T14:54:55;8.80;99.90
25214;DHT22;13160;51.834;4.706;2023-03-05T14:57:27;8.80;99.90
25214;DHT22;13160;51.834;4.706;2023-03-05T14:59:58;8.70;99.90
25214;DHT22;13160;51.834;4.706;2023-03-05T15:02:26;8.70;99.90
25214;DHT22;13160;51.834;4.706;2023-03-05T15:04:56;8.70;99.90
25214;DHT22;13160;51.834;4.706;2023-03-05T15:07:27;8.70;99.90
25214;DHT22;13160;51.834;4.706;2023-03-05T15:09:58;8.60;99.90
25214;DHT22;13160;51.834;4.706;2023-03-05T15:12:26;8.60;99.90
25214;DHT22;13160;51.834;4.706;2023-03-05T15:14:55;8.60;99.90
25214;DHT22;13160;51.834;4.706;2023-03-05T15:17:29;8.60;99.90
25214;DHT22;13160;51.834;4.706;2023-03-05T15:20:03;8.60;99.90
25214;DHT22;13160;51.834;4.706;2023-03-05T15:22:36;8.60;99.90
25214;DHT22;13160;51.834;4.706;2023-03-05T15:25:05;8.50;99.90
25214;DHT22;13160;51.834;4.706;2023-03-05T15:27:34;8.50;99.90
25214;DHT22;13160;51.834;4.706;2023-03-05T15:30:03;8.50;99.90
25214;DHT22;13160;51.834;4.706;2023-03-05T15:32:33;8.50;99.90
25214;DHT22;13160;51.834;4.706;2023-03-05T15:35:03;8.50;99.90
25214;DHT22;13160;51.834;4.706;2023-03-05T15:37:32;8.50;99.90
25214;DHT22;13160;51.834;4.706;2023-03-05T15:40:00;8.50;99.90
25214;DHT22;13160;51.834;4.706;2023-03-05T15:42:29;8.40;99.90
25214;DHT22;13160;51.834;4.706;2023-03-05T15:44:58;8.40;99.90
25214;DHT22;13160;51.834;4.706;2023-03-05T15:47:26;8.40;99.90
25214;DHT22;13160;51.834;4.706;2023-03-05T15:49:58;8.30;99.90
25214;DHT22;13160;51.834;4.706;2023-03-05T15:52:29;8.30;99.90
25214;DHT22;13160;51.834;4.706;2023-03-05T15:54:59;8.30;99.90
25214;DHT22;13160;51.834;4.706;2023-03-05T15:57:34;8.20;99.90
25214;DHT22;13160;51.834;4.706;2023-03-05T16:00:08;8.20;99.90
25214;DHT22;13160;51.834;4.706;2023-03-05T16:02:37;8.10;99.90
25214;DHT22;13160;51.834;4.706;2023-03-05T16:05:07;8.10;99.90
25214;DHT22;13160;51.834;4.706;2023-03-05T16:07:40;8.00;99.90
25214;DHT22;13160;51.834;4.706;2023-03-05T16:10:10;8.00;99.90
25214;DHT22;13160;51.834;4.706;2023-03-05T16:12:40;7.90;99.90
25214;DHT22;13160;51.834;4.706;2023-03-05T16:15:10;7.90;99.90
25214;DHT22;13160;51.834;4.706;2023-03-05T16:17:44;7.80;99.90
25214;DHT22;13160;51.834;4.706;2023-03-05T16:20:15;7.80;99.90
25214;DHT22;13160;51.834;4.706;2023-03-05T16:22:45;7.70;99.90
25214;DHT22;13160;51.834;4.706;2023-03-05T16:25:15;7.70;99.90
25214;DHT22;13160;51.834;4.706;2023-03-05T16:27:44;7.60;99.90
25214;DHT22;13160;51.834;4.706;2023-03-05T16:30:14;7.60;99.90